South Palm Beach, Florida
Current Conditions -  °F | °C
As of 3:53 PM on Thursday 23 Oct 2014 (Local Time) from KPBI Reporting Station
Overcast Overcast  
Wind Chill: 78°   Ceiling: 3800
Heat Index: 80°   Visibility: 10mi
Dew Point: 63°   Wind: 15mph
Humidity: 60%   Direction: 50°NE
Pressure: 29.89"   Gusts: NA
Location:  26.6941°N, 80.0379°W
Report Text: KPBI 231953Z 05013KT 10SM OVC038 26/17 A2989 RMK AO2 SLP122 T02560172
Loading
Personal Weather Stations






























Interactive Weather Map New forecast layout! Learn more

10-Day Weather Forecast

Advertisements
Track Severe Weather on mobile